sensor_id;sensor_type;location;lat;lon;timestamp;P1;durP1;ratioP1;P2;durP2;ratioP2
8893;SDS011;4483;48.622;9.230;2023-03-03T00:01:13;24.37;;;14.80;;
8893;SDS011;4483;48.622;9.230;2023-03-03T00:03:40;26.47;;;16.00;;
8893;SDS011;4483;48.622;9.230;2023-03-03T00:06:09;24.40;;;15.10;;
8893;SDS011;4483;48.622;9.230;2023-03-03T00:08:37;23.07;;;14.53;;
8893;SDS011;4483;48.622;9.230;2023-03-03T00:11:05;25.83;;;15.03;;
8893;SDS011;4483;48.622;9.230;2023-03-03T00:13:32;23.13;;;13.87;;
8893;SDS011;4483;48.622;9.230;2023-03-03T00:16:13;24.53;;;14.60;;
8893;SDS011;4483;48.622;9.230;2023-03-03T00:18:43;24.55;;;16.05;;
8893;SDS011;4483;48.622;9.230;2023-03-03T00:21:26;21.40;;;14.53;;
8893;SDS011;4483;48.622;9.230;2023-03-03T00:23:54;22.00;;;14.17;;
8893;SDS011;4483;48.622;9.230;2023-03-03T00:26:30;23.37;;;14.53;;
8893;SDS011;4483;48.622;9.230;2023-03-03T00:29:00;23.07;;;13.23;;
8893;SDS011;4483;48.622;9.230;2023-03-03T00:31:30;25.10;;;13.73;;
8893;SDS011;4483;48.622;9.230;2023-03-03T00:34:01;20.00;;;12.93;;
8893;SDS011;4483;48.622;9.230;2023-03-03T00:36:46;20.73;;;13.43;;
8893;SDS011;4483;48.622;9.230;2023-03-03T00:39:18;24.07;;;14.73;;
8893;SDS011;4483;48.622;9.230;2023-03-03T00:41:51;29.13;;;14.80;;
8893;SDS011;4483;48.622;9.230;2023-03-03T00:44:31;22.93;;;14.83;;
8893;SDS011;4483;48.622;9.230;2023-03-03T00:49:52;24.47;;;14.57;;
8893;SDS011;4483;48.622;9.230;2023-03-03T00:52:21;27.17;;;14.63;;
8893;SDS011;4483;48.622;9.230;2023-03-03T00:54:51;20.00;;;13.73;;
8893;SDS011;4483;48.622;9.230;2023-03-03T00:57:17;22.40;;;15.17;;
8893;SDS011;4483;48.622;9.230;2023-03-03T00:59:44;22.87;;;14.97;;
8893;SDS011;4483;48.622;9.230;2023-03-03T01:02:10;27.97;;;15.60;;
8893;SDS011;4483;48.622;9.230;2023-03-03T01:04:37;24.53;;;15.07;;
8893;SDS011;4483;48.622;9.230;2023-03-03T01:07:05;22.40;;;14.80;;
8893;SDS011;4483;48.622;9.230;2023-03-03T01:09:33;22.70;;;14.30;;
8893;SDS011;4483;48.622;9.230;2023-03-03T01:12:00;25.77;;;15.57;;
8893;SDS011;4483;48.622;9.230;2023-03-03T01:14:26;25.70;;;15.13;;
8893;SDS011;4483;48.622;9.230;2023-03-03T01:16:53;23.77;;;14.70;;
8893;SDS011;4483;48.622;9.230;2023-03-03T01:19:20;23.50;;;15.10;;
8893;SDS011;4483;48.622;9.230;2023-03-03T01:21:46;22.53;;;14.17;;
8893;SDS011;4483;48.622;9.230;2023-03-03T01:24:13;24.70;;;15.60;;
8893;SDS011;4483;48.622;9.230;2023-03-03T01:26:41;27.60;;;16.63;;
8893;SDS011;4483;48.622;9.230;2023-03-03T01:29:09;27.67;;;15.87;;
8893;SDS011;4483;48.622;9.230;2023-03-03T01:31:36;22.67;;;14.50;;
8893;SDS011;4483;48.622;9.230;2023-03-03T01:34:02;21.40;;;14.23;;
8893;SDS011;4483;48.622;9.230;2023-03-03T01:36:31;21.73;;;14.00;;
8893;SDS011;4483;48.622;9.230;2023-03-03T01:38:58;25.53;;;15.83;;
8893;SDS011;4483;48.622;9.230;2023-03-03T01:41:26;22.57;;;14.07;;
8893;SDS011;4483;48.622;9.230;2023-03-03T01:43:55;25.07;;;15.47;;
8893;SDS011;4483;48.622;9.230;2023-03-03T01:49:17;20.37;;;14.30;;
8893;SDS011;4483;48.622;9.230;2023-03-03T01:51:48;27.07;;;16.00;;
8893;SDS011;4483;48.622;9.230;2023-03-03T01:54:19;25.77;;;15.63;;
8893;SDS011;4483;48.622;9.230;2023-03-03T01:56:50;23.80;;;14.87;;
8893;SDS011;4483;48.622;9.230;2023-03-03T01:59:23;25.80;;;14.53;;
8893;SDS011;4483;48.622;9.230;2023-03-03T02:01:53;23.60;;;14.57;;
8893;SDS011;4483;48.622;9.230;2023-03-03T02:04:20;25.97;;;14.77;;
8893;SDS011;4483;48.622;9.230;2023-03-03T02:06:49;22.90;;;13.93;;
8893;SDS011;4483;48.622;9.230;2023-03-03T02:09:21;24.70;;;14.60;;
8893;SDS011;4483;48.622;9.230;2023-03-03T02:11:56;24.30;;;15.17;;
8893;SDS011;4483;48.622;9.230;2023-03-03T02:14:26;22.77;;;13.93;;
8893;SDS011;4483;48.622;9.230;2023-03-03T02:16:53;26.07;;;14.00;;
8893;SDS011;4483;48.622;9.230;2023-03-03T02:19:21;22.37;;;14.37;;
8893;SDS011;4483;48.622;9.230;2023-03-03T02:21:52;22.07;;;14.80;;
8893;SDS011;4483;48.622;9.230;2023-03-03T02:24:20;29.33;;;15.07;;
8893;SDS011;4483;48.622;9.230;2023-03-03T02:26:53;23.20;;;14.10;;
8893;SDS011;4483;48.622;9.230;2023-03-03T02:29:20;23.83;;;14.83;;
8893;SDS011;4483;48.622;9.230;2023-03-03T02:31:47;22.33;;;14.87;;
8893;SDS011;4483;48.622;9.230;2023-03-03T02:34:13;26.90;;;15.63;;
8893;SDS011;4483;48.622;9.230;2023-03-03T02:36:40;22.37;;;14.23;;
8893;SDS011;4483;48.622;9.230;2023-03-03T02:39:08;33.57;;;15.50;;
8893;SDS011;4483;48.622;9.230;2023-03-03T02:41:38;22.80;;;13.80;;
8893;SDS011;4483;48.622;9.230;2023-03-03T02:44:10;25.80;;;15.37;;
8893;SDS011;4483;48.622;9.230;2023-03-03T02:46:39;22.80;;;14.77;;
8893;SDS011;4483;48.622;9.230;2023-03-03T02:49:07;22.20;;;13.70;;
8893;SDS011;4483;48.622;9.230;2023-03-03T02:51:35;20.37;;;13.77;;
8893;SDS011;4483;48.622;9.230;2023-03-03T02:54:03;23.83;;;14.57;;
8893;SDS011;4483;48.622;9.230;2023-03-03T02:56:30;23.03;;;13.43;;
8893;SDS011;4483;48.622;9.230;2023-03-03T02:58:57;23.87;;;15.10;;
8893;SDS011;4483;48.622;9.230;2023-03-03T03:01:25;24.30;;;15.57;;
8893;SDS011;4483;48.622;9.230;2023-03-03T03:03:53;29.33;;;16.50;;
8893;SDS011;4483;48.622;9.230;2023-03-03T03:06:20;24.00;;;15.13;;
8893;SDS011;4483;48.622;9.230;2023-03-03T03:08:46;22.57;;;15.03;;
8893;SDS011;4483;48.622;9.230;2023-03-03T03:11:13;24.67;;;15.67;;
8893;SDS011;4483;48.622;9.230;2023-03-03T03:13:40;23.17;;;14.50;;
8893;SDS011;4483;48.622;9.230;2023-03-03T03:16:06;27.93;;;15.53;;
8893;SDS011;4483;48.622;9.230;2023-03-03T03:18:34;23.60;;;15.17;;
8893;SDS011;4483;48.622;9.230;2023-03-03T03:21:05;31.37;;;16.37;;
8893;SDS011;4483;48.622;9.230;2023-03-03T03:23:33;26.27;;;15.67;;
8893;SDS011;4483;48.622;9.230;2023-03-03T03:26:01;28.07;;;16.37;;
8893;SDS011;4483;48.622;9.230;2023-03-03T03:28:28;26.53;;;16.17;;
8893;SDS011;4483;48.622;9.230;2023-03-03T03:30:54;23.43;;;15.43;;
8893;SDS011;4483;48.622;9.230;2023-03-03T03:33:21;25.47;;;16.47;;
8893;SDS011;4483;48.622;9.230;2023-03-03T03:35:49;27.73;;;16.30;;
8893;SDS011;4483;48.622;9.230;2023-03-03T03:38:16;25.93;;;16.20;;
8893;SDS011;4483;48.622;9.230;2023-03-03T03:40:43;24.87;;;16.30;;
8893;SDS011;4483;48.622;9.230;2023-03-03T03:43:10;27.03;;;16.30;;
8893;SDS011;4483;48.622;9.230;2023-03-03T03:45:36;28.23;;;16.90;;
8893;SDS011;4483;48.622;9.230;2023-03-03T03:48:03;29.90;;;16.27;;
8893;SDS011;4483;48.622;9.230;2023-03-03T03:50:30;24.13;;;15.93;;
8893;SDS011;4483;48.622;9.230;2023-03-03T03:52:58;22.33;;;15.03;;
8893;SDS011;4483;48.622;9.230;2023-03-03T03:55:25;29.13;;;18.07;;
8893;SDS011;4483;48.622;9.230;2023-03-03T03:57:51;27.17;;;17.00;;
8893;SDS011;4483;48.622;9.230;2023-03-03T04:00:18;26.57;;;16.47;;
8893;SDS011;4483;48.622;9.230;2023-03-03T04:02:45;32.37;;;17.37;;
8893;SDS011;4483;48.622;9.230;2023-03-03T04:05:12;25.27;;;15.83;;
8893;SDS011;4483;48.622;9.230;2023-03-03T04:07:38;25.40;;;17.50;;
8893;SDS011;4483;48.622;9.230;2023-03-03T04:10:07;30.70;;;17.47;;
8893;SDS011;4483;48.622;9.230;2023-03-03T04:12:34;28.87;;;16.50;;
8893;SDS011;4483;48.622;9.230;2023-03-03T04:15:03;27.17;;;17.20;;
8893;SDS011;4483;48.622;9.230;2023-03-03T04:17:31;29.93;;;17.00;;
8893;SDS011;4483;48.622;9.230;2023-03-03T04:19:58;26.03;;;16.47;;
8893;SDS011;4483;48.622;9.230;2023-03-03T04:22:24;26.70;;;16.63;;
8893;SDS011;4483;48.622;9.230;2023-03-03T04:24:51;24.90;;;16.33;;
8893;SDS011;4483;48.622;9.230;2023-03-03T04:27:19;27.90;;;16.47;;
8893;SDS011;4483;48.622;9.230;2023-03-03T04:29:47;29.93;;;18.40;;
8893;SDS011;4483;48.622;9.230;2023-03-03T04:32:14;28.93;;;18.27;;
8893;SDS011;4483;48.622;9.230;2023-03-03T04:34:42;29.67;;;18.13;;
8893;SDS011;4483;48.622;9.230;2023-03-03T04:37:09;29.13;;;18.00;;
8893;SDS011;4483;48.622;9.230;2023-03-03T04:39:35;30.30;;;16.87;;
8893;SDS011;4483;48.622;9.230;2023-03-03T04:42:02;25.53;;;15.53;;
8893;SDS011;4483;48.622;9.230;2023-03-03T04:44:30;28.87;;;17.70;;
8893;SDS011;4483;48.622;9.230;2023-03-03T04:46:57;25.80;;;16.67;;
8893;SDS011;4483;48.622;9.230;2023-03-03T04:49:23;26.43;;;17.00;;
8893;SDS011;4483;48.622;9.230;2023-03-03T04:51:50;25.60;;;17.17;;
8893;SDS011;4483;48.622;9.230;2023-03-03T04:54:17;30.10;;;16.50;;
8893;SDS011;4483;48.622;9.230;2023-03-03T04:56:44;31.23;;;16.33;;
8893;SDS011;4483;48.622;9.230;2023-03-03T04:59:10;25.87;;;16.73;;
8893;SDS011;4483;48.622;9.230;2023-03-03T05:01:38;28.17;;;17.43;;
8893;SDS011;4483;48.622;9.230;2023-03-03T05:04:05;26.67;;;17.33;;
8893;SDS011;4483;48.622;9.230;2023-03-03T05:06:32;25.00;;;15.73;;
8893;SDS011;4483;48.622;9.230;2023-03-03T05:08:59;28.00;;;17.57;;
8893;SDS011;4483;48.622;9.230;2023-03-03T05:11:25;32.63;;;17.80;;
8893;SDS011;4483;48.622;9.230;2023-03-03T05:13:52;26.63;;;16.93;;
8893;SDS011;4483;48.622;9.230;2023-03-03T05:16:19;28.13;;;16.83;;
8893;SDS011;4483;48.622;9.230;2023-03-03T05:18:47;27.80;;;16.47;;
8893;SDS011;4483;48.622;9.230;2023-03-03T05:21:13;27.30;;;16.57;;
8893;SDS011;4483;48.622;9.230;2023-03-03T05:23:40;25.37;;;16.97;;
8893;SDS011;4483;48.622;9.230;2023-03-03T05:26:07;26.67;;;16.20;;
8893;SDS011;4483;48.622;9.230;2023-03-03T05:28:33;26.63;;;16.87;;
8893;SDS011;4483;48.622;9.230;2023-03-03T05:31:00;28.27;;;17.20;;
8893;SDS011;4483;48.622;9.230;2023-03-03T05:33:26;31.80;;;17.83;;
8893;SDS011;4483;48.622;9.230;2023-03-03T05:35:55;27.00;;;17.10;;
8893;SDS011;4483;48.622;9.230;2023-03-03T05:38:23;28.43;;;16.67;;
8893;SDS011;4483;48.622;9.230;2023-03-03T05:40:50;26.87;;;17.57;;
8893;SDS011;4483;48.622;9.230;2023-03-03T05:43:17;29.30;;;18.00;;
8893;SDS011;4483;48.622;9.230;2023-03-03T05:45:43;29.13;;;17.97;;
8893;SDS011;4483;48.622;9.230;2023-03-03T05:48:10;28.13;;;17.17;;
8893;SDS011;4483;48.622;9.230;2023-03-03T05:50:37;26.30;;;17.10;;
8893;SDS011;4483;48.622;9.230;2023-03-03T05:53:05;27.73;;;17.17;;
8893;SDS011;4483;48.622;9.230;2023-03-03T05:55:32;27.37;;;17.27;;
8893;SDS011;4483;48.622;9.230;2023-03-03T05:57:59;28.30;;;17.57;;
8893;SDS011;4483;48.622;9.230;2023-03-03T06:00:25;27.27;;;16.57;;
8893;SDS011;4483;48.622;9.230;2023-03-03T06:02:52;29.93;;;17.90;;
8893;SDS011;4483;48.622;9.230;2023-03-03T06:05:19;27.50;;;17.63;;
8893;SDS011;4483;48.622;9.230;2023-03-03T06:07:45;24.87;;;17.00;;
8893;SDS011;4483;48.622;9.230;2023-03-03T06:10:13;27.33;;;16.77;;
8893;SDS011;4483;48.622;9.230;2023-03-03T06:12:40;27.90;;;17.10;;
8893;SDS011;4483;48.622;9.230;2023-03-03T06:15:07;26.33;;;16.53;;
8893;SDS011;4483;48.622;9.230;2023-03-03T06:17:34;26.53;;;16.73;;
8893;SDS011;4483;48.622;9.230;2023-03-03T06:20:01;25.87;;;16.97;;
8893;SDS011;4483;48.622;9.230;2023-03-03T06:22:28;26.97;;;16.73;;
8893;SDS011;4483;48.622;9.230;2023-03-03T06:24:55;30.13;;;18.63;;
8893;SDS011;4483;48.622;9.230;2023-03-03T06:27:23;28.20;;;17.70;;
8893;SDS011;4483;48.622;9.230;2023-03-03T06:29:49;26.77;;;17.07;;
8893;SDS011;4483;48.622;9.230;2023-03-03T06:32:16;29.90;;;18.40;;
8893;SDS011;4483;48.622;9.230;2023-03-03T06:34:42;34.10;;;19.50;;
8893;SDS011;4483;48.622;9.230;2023-03-03T06:37:09;31.37;;;17.90;;
8893;SDS011;4483;48.622;9.230;2023-03-03T06:39:36;26.63;;;17.17;;
8893;SDS011;4483;48.622;9.230;2023-03-03T06:42:03;27.07;;;16.70;;
8893;SDS011;4483;48.622;9.230;2023-03-03T06:44:31;29.13;;;17.17;;
8893;SDS011;4483;48.622;9.230;2023-03-03T06:46:58;27.63;;;17.33;;
8893;SDS011;4483;48.622;9.230;2023-03-03T06:49:25;31.23;;;17.37;;
8893;SDS011;4483;48.622;9.230;2023-03-03T06:51:51;31.00;;;18.43;;
8893;SDS011;4483;48.622;9.230;2023-03-03T06:54:19;26.10;;;17.03;;
8893;SDS011;4483;48.622;9.230;2023-03-03T06:56:49;32.00;;;18.33;;
8893;SDS011;4483;48.622;9.230;2023-03-03T06:59:19;28.07;;;17.77;;
8893;SDS011;4483;48.622;9.230;2023-03-03T07:01:49;28.53;;;16.77;;
8893;SDS011;4483;48.622;9.230;2023-03-03T07:04:19;27.43;;;17.17;;
8893;SDS011;4483;48.622;9.230;2023-03-03T07:06:52;24.33;;;16.90;;
8893;SDS011;4483;48.622;9.230;2023-03-03T07:09:20;27.50;;;17.47;;
8893;SDS011;4483;48.622;9.230;2023-03-03T07:11:48;28.97;;;17.70;;
8893;SDS011;4483;48.622;9.230;2023-03-03T07:14:16;30.53;;;18.40;;
8893;SDS011;4483;48.622;9.230;2023-03-03T07:16:44;28.80;;;17.77;;
8893;SDS011;4483;48.622;9.230;2023-03-03T07:19:15;29.10;;;17.57;;
8893;SDS011;4483;48.622;9.230;2023-03-03T07:21:46;32.77;;;18.03;;
8893;SDS011;4483;48.622;9.230;2023-03-03T07:24:17;30.30;;;17.97;;
8893;SDS011;4483;48.622;9.230;2023-03-03T07:26:53;30.80;;;18.93;;
8893;SDS011;4483;48.622;9.230;2023-03-03T07:29:26;28.53;;;18.70;;
8893;SDS011;4483;48.622;9.230;2023-03-03T07:31:55;26.03;;;17.23;;
8893;SDS011;4483;48.622;9.230;2023-03-03T07:34:26;28.43;;;17.73;;
8893;SDS011;4483;48.622;9.230;2023-03-03T07:37:03;35.63;;;19.17;;
8893;SDS011;4483;48.622;9.230;2023-03-03T07:39:36;30.40;;;18.57;;
8893;SDS011;4483;48.622;9.230;2023-03-03T07:42:13;30.13;;;18.53;;
8893;SDS011;4483;48.622;9.230;2023-03-03T07:44:45;28.83;;;18.60;;
8893;SDS011;4483;48.622;9.230;2023-03-03T07:47:20;30.30;;;18.17;;
8893;SDS011;4483;48.622;9.230;2023-03-03T07:49:51;31.27;;;18.20;;
8893;SDS011;4483;48.622;9.230;2023-03-03T07:52:22;31.13;;;17.93;;
8893;SDS011;4483;48.622;9.230;2023-03-03T07:54:50;32.03;;;18.83;;
8893;SDS011;4483;48.622;9.230;2023-03-03T07:57:21;33.90;;;18.53;;
8893;SDS011;4483;48.622;9.230;2023-03-03T07:59:50;31.63;;;19.63;;
8893;SDS011;4483;48.622;9.230;2023-03-03T08:02:37;30.33;;;18.63;;
8893;SDS011;4483;48.622;9.230;2023-03-03T08:05:21;28.13;;;16.93;;
8893;SDS011;4483;48.622;9.230;2023-03-03T08:07:53;29.97;;;19.07;;
8893;SDS011;4483;48.622;9.230;2023-03-03T08:10:28;28.93;;;18.20;;
8893;SDS011;4483;48.622;9.230;2023-03-03T08:13:01;28.63;;;18.43;;
8893;SDS011;4483;48.622;9.230;2023-03-03T08:15:41;31.80;;;19.90;;
8893;SDS011;4483;48.622;9.230;2023-03-03T08:18:14;34.17;;;19.17;;
8893;SDS011;4483;48.622;9.230;2023-03-03T08:20:49;35.30;;;23.10;;
8893;SDS011;4483;48.622;9.230;2023-03-03T08:23:17;35.27;;;20.87;;
8893;SDS011;4483;48.622;9.230;2023-03-03T08:25:45;33.57;;;20.53;;
8893;SDS011;4483;48.622;9.230;2023-03-03T08:28:13;29.97;;;19.47;;
8893;SDS011;4483;48.622;9.230;2023-03-03T08:30:41;33.60;;;20.43;;
8893;SDS011;4483;48.622;9.230;2023-03-03T08:33:08;33.20;;;20.60;;
8893;SDS011;4483;48.622;9.230;2023-03-03T08:35:35;31.77;;;19.87;;
8893;SDS011;4483;48.622;9.230;2023-03-03T08:38:03;32.57;;;20.90;;
8893;SDS011;4483;48.622;9.230;2023-03-03T08:40:30;32.30;;;19.67;;
8893;SDS011;4483;48.622;9.230;2023-03-03T08:42:57;33.63;;;20.80;;
8893;SDS011;4483;48.622;9.230;2023-03-03T08:45:24;34.57;;;20.83;;
8893;SDS011;4483;48.622;9.230;2023-03-03T08:47:51;32.53;;;19.23;;
8893;SDS011;4483;48.622;9.230;2023-03-03T08:50:18;29.40;;;18.23;;
8893;SDS011;4483;48.622;9.230;2023-03-03T08:52:45;27.40;;;17.80;;
8893;SDS011;4483;48.622;9.230;2023-03-03T08:55:13;29.53;;;18.87;;
8893;SDS011;4483;48.622;9.230;2023-03-03T08:57:40;28.37;;;19.10;;
8893;SDS011;4483;48.622;9.230;2023-03-03T09:00:08;28.70;;;18.53;;
8893;SDS011;4483;48.622;9.230;2023-03-03T09:02:36;34.07;;;19.93;;
8893;SDS011;4483;48.622;9.230;2023-03-03T09:05:03;30.47;;;19.47;;
8893;SDS011;4483;48.622;9.230;2023-03-03T09:07:30;31.00;;;18.77;;
8893;SDS011;4483;48.622;9.230;2023-03-03T09:09:57;33.33;;;19.03;;
8893;SDS011;4483;48.622;9.230;2023-03-03T09:12:27;34.10;;;18.67;;
8893;SDS011;4483;48.622;9.230;2023-03-03T09:14:55;32.00;;;19.97;;
8893;SDS011;4483;48.622;9.230;2023-03-03T09:17:25;30.20;;;18.17;;
8893;SDS011;4483;48.622;9.230;2023-03-03T09:19:58;29.90;;;18.90;;
8893;SDS011;4483;48.622;9.230;2023-03-03T09:22:28;30.27;;;18.33;;
8893;SDS011;4483;48.622;9.230;2023-03-03T09:25:01;31.07;;;18.50;;
8893;SDS011;4483;48.622;9.230;2023-03-03T09:27:30;27.87;;;18.40;;
8893;SDS011;4483;48.622;9.230;2023-03-03T09:30:00;27.67;;;18.23;;
8893;SDS011;4483;48.622;9.230;2023-03-03T09:32:32;28.13;;;18.87;;
8893;SDS011;4483;48.622;9.230;2023-03-03T09:35:01;27.53;;;17.87;;
8893;SDS011;4483;48.622;9.230;2023-03-03T09:38:00;29.03;;;18.13;;
8893;SDS011;4483;48.622;9.230;2023-03-03T09:40:35;27.47;;;18.47;;
8893;SDS011;4483;48.622;9.230;2023-03-03T09:43:18;29.13;;;18.17;;
8893;SDS011;4483;48.622;9.230;2023-03-03T09:45:56;27.57;;;18.20;;
8893;SDS011;4483;48.622;9.230;2023-03-03T09:48:38;30.30;;;18.57;;
8893;SDS011;4483;48.622;9.230;2023-03-03T09:51:22;32.00;;;18.83;;
8893;SDS011;4483;48.622;9.230;2023-03-03T09:54:04;29.20;;;17.77;;
8893;SDS011;4483;48.622;9.230;2023-03-03T09:56:41;37.53;;;19.43;;
8893;SDS011;4483;48.622;9.230;2023-03-03T09:59:19;26.47;;;17.63;;
8893;SDS011;4483;48.622;9.230;2023-03-03T10:02:07;28.10;;;19.20;;
8893;SDS011;4483;48.622;9.230;2023-03-03T10:04:55;28.23;;;17.60;;
8893;SDS011;4483;48.622;9.230;2023-03-03T10:07:35;28.63;;;18.60;;
8893;SDS011;4483;48.622;9.230;2023-03-03T10:10:15;26.07;;;18.53;;
8893;SDS011;4483;48.622;9.230;2023-03-03T10:13:01;26.53;;;18.00;;
8893;SDS011;4483;48.622;9.230;2023-03-03T10:15:40;29.53;;;19.10;;
8893;SDS011;4483;48.622;9.230;2023-03-03T10:18:20;32.97;;;17.57;;
8893;SDS011;4483;48.622;9.230;2023-03-03T10:20:59;28.70;;;18.30;;
8893;SDS011;4483;48.622;9.230;2023-03-03T10:23:37;33.80;;;19.87;;
8893;SDS011;4483;48.622;9.230;2023-03-03T10:26:19;27.63;;;17.90;;
8893;SDS011;4483;48.622;9.230;2023-03-03T10:28:55;29.97;;;17.80;;
8893;SDS011;4483;48.622;9.230;2023-03-03T10:31:38;34.83;;;17.93;;
8893;SDS011;4483;48.622;9.230;2023-03-03T10:34:19;26.27;;;17.87;;
8893;SDS011;4483;48.622;9.230;2023-03-03T10:36:54;26.90;;;18.53;;
8893;SDS011;4483;48.622;9.230;2023-03-03T10:39:31;32.50;;;18.57;;
8893;SDS011;4483;48.622;9.230;2023-03-03T10:42:16;26.93;;;17.37;;
8893;SDS011;4483;48.622;9.230;2023-03-03T10:45:00;25.87;;;17.93;;
8893;SDS011;4483;48.622;9.230;2023-03-03T10:47:56;25.07;;;17.60;;
8893;SDS011;4483;48.622;9.230;2023-03-03T10:50:41;22.93;;;16.83;;
8893;SDS011;4483;48.622;9.230;2023-03-03T10:53:20;32.37;;;17.83;;
8893;SDS011;4483;48.622;9.230;2023-03-03T10:56:06;23.87;;;17.60;;
8893;SDS011;4483;48.622;9.230;2023-03-03T10:58:49;27.80;;;17.90;;
8893;SDS011;4483;48.622;9.230;2023-03-03T11:01:24;26.47;;;17.87;;
8893;SDS011;4483;48.622;9.230;2023-03-03T11:04:09;25.83;;;17.60;;
8893;SDS011;4483;48.622;9.230;2023-03-03T11:06:46;24.90;;;17.57;;
8893;SDS011;4483;48.622;9.230;2023-03-03T11:09:26;25.57;;;17.93;;
8893;SDS011;4483;48.622;9.230;2023-03-03T11:12:03;27.37;;;17.07;;
8893;SDS011;4483;48.622;9.230;2023-03-03T11:14:44;25.73;;;17.87;;
8893;SDS011;4483;48.622;9.230;2023-03-03T11:17:14;23.97;;;17.43;;
8893;SDS011;4483;48.622;9.230;2023-03-03T11:19:50;25.90;;;18.03;;
8893;SDS011;4483;48.622;9.230;2023-03-03T11:22:30;23.97;;;17.73;;
8893;SDS011;4483;48.622;9.230;2023-03-03T11:25:02;27.50;;;17.63;;
8893;SDS011;4483;48.622;9.230;2023-03-03T11:27:51;31.83;;;18.30;;
8893;SDS011;4483;48.622;9.230;2023-03-03T11:30:33;30.53;;;18.37;;
8893;SDS011;4483;48.622;9.230;2023-03-03T11:33:10;28.90;;;18.33;;
8893;SDS011;4483;48.622;9.230;2023-03-03T11:35:42;27.73;;;18.40;;
8893;SDS011;4483;48.622;9.230;2023-03-03T11:38:26;26.83;;;17.93;;
8893;SDS011;4483;48.622;9.230;2023-03-03T11:41:03;22.73;;;16.90;;
8893;SDS011;4483;48.622;9.230;2023-03-03T11:43:36;27.50;;;17.47;;
8893;SDS011;4483;48.622;9.230;2023-03-03T11:46:08;32.33;;;18.30;;
8893;SDS011;4483;48.622;9.230;2023-03-03T11:48:40;29.20;;;18.23;;
8893;SDS011;4483;48.622;9.230;2023-03-03T11:51:13;27.27;;;20.27;;
8893;SDS011;4483;48.622;9.230;2023-03-03T11:53:52;24.90;;;17.47;;
8893;SDS011;4483;48.622;9.230;2023-03-03T11:56:26;27.83;;;19.00;;
8893;SDS011;4483;48.622;9.230;2023-03-03T11:59:01;27.10;;;17.77;;
8893;SDS011;4483;48.622;9.230;2023-03-03T12:01:41;25.33;;;17.70;;
8893;SDS011;4483;48.622;9.230;2023-03-03T12:04:14;23.03;;;17.13;;
8893;SDS011;4483;48.622;9.230;2023-03-03T12:06:51;26.17;;;17.90;;
8893;SDS011;4483;48.622;9.230;2023-03-03T12:09:32;28.63;;;17.77;;
8893;SDS011;4483;48.622;9.230;2023-03-03T12:12:05;26.63;;;18.80;;
8893;SDS011;4483;48.622;9.230;2023-03-03T12:14:42;27.60;;;17.17;;
8893;SDS011;4483;48.622;9.230;2023-03-03T12:17:27;25.37;;;18.00;;
8893;SDS011;4483;48.622;9.230;2023-03-03T12:20:08;26.23;;;17.50;;
8893;SDS011;4483;48.622;9.230;2023-03-03T12:22:47;27.40;;;17.30;;
8893;SDS011;4483;48.622;9.230;2023-03-03T12:25:22;29.87;;;17.60;;
8893;SDS011;4483;48.622;9.230;2023-03-03T12:27:57;25.37;;;17.77;;
8893;SDS011;4483;48.622;9.230;2023-03-03T12:30:39;25.97;;;18.47;;
8893;SDS011;4483;48.622;9.230;2023-03-03T12:33:25;27.20;;;18.10;;
8893;SDS011;4483;48.622;9.230;2023-03-03T12:36:03;22.77;;;17.90;;
8893;SDS011;4483;48.622;9.230;2023-03-03T12:38:46;25.27;;;18.10;;
8893;SDS011;4483;48.622;9.230;2023-03-03T12:41:22;25.97;;;18.77;;
8893;SDS011;4483;48.622;9.230;2023-03-03T12:43:55;25.10;;;18.07;;
8893;SDS011;4483;48.622;9.230;2023-03-03T12:46:27;24.37;;;18.90;;
8893;SDS011;4483;48.622;9.230;2023-03-03T12:49:05;24.10;;;18.13;;
8893;SDS011;4483;48.622;9.230;2023-03-03T12:51:51;23.93;;;18.33;;
8893;SDS011;4483;48.622;9.230;2023-03-03T12:54:43;27.83;;;18.20;;
8893;SDS011;4483;48.622;9.230;2023-03-03T12:57:20;26.00;;;18.23;;
8893;SDS011;4483;48.622;9.230;2023-03-03T13:00:02;25.30;;;17.70;;
8893;SDS011;4483;48.622;9.230;2023-03-03T13:02:45;25.33;;;15.97;;
8893;SDS011;4483;48.622;9.230;2023-03-03T13:05:23;23.00;;;17.60;;
8893;SDS011;4483;48.622;9.230;2023-03-03T13:08:06;32.20;;;18.47;;
8893;SDS011;4483;48.622;9.230;2023-03-03T13:10:57;25.13;;;18.77;;
8893;SDS011;4483;48.622;9.230;2023-03-03T13:13:32;25.57;;;18.67;;
8893;SDS011;4483;48.622;9.230;2023-03-03T13:16:09;26.00;;;18.43;;
8893;SDS011;4483;48.622;9.230;2023-03-03T13:18:41;25.47;;;18.60;;
8893;SDS011;4483;48.622;9.230;2023-03-03T13:21:16;25.93;;;19.60;;
8893;SDS011;4483;48.622;9.230;2023-03-03T13:23:49;27.90;;;17.33;;
8893;SDS011;4483;48.622;9.230;2023-03-03T13:26:21;26.17;;;16.43;;
8893;SDS011;4483;48.622;9.230;2023-03-03T13:28:58;25.13;;;17.63;;
8893;SDS011;4483;48.622;9.230;2023-03-03T13:31:37;25.23;;;19.10;;
8893;SDS011;4483;48.622;9.230;2023-03-03T13:34:06;26.87;;;18.90;;
8893;SDS011;4483;48.622;9.230;2023-03-03T13:36:40;25.23;;;18.10;;
8893;SDS011;4483;48.622;9.230;2023-03-03T13:39:17;24.13;;;17.00;;
8893;SDS011;4483;48.622;9.230;2023-03-03T13:41:48;24.67;;;18.27;;
8893;SDS011;4483;48.622;9.230;2023-03-03T13:44:23;26.57;;;16.97;;
8893;SDS011;4483;48.622;9.230;2023-03-03T13:46:59;25.57;;;18.20;;
8893;SDS011;4483;48.622;9.230;2023-03-03T13:49:37;25.80;;;18.77;;
8893;SDS011;4483;48.622;9.230;2023-03-03T13:52:13;29.73;;;18.43;;
8893;SDS011;4483;48.622;9.230;2023-03-03T13:54:54;31.47;;;17.17;;
8893;SDS011;4483;48.622;9.230;2023-03-03T13:57:44;26.60;;;17.53;;
8893;SDS011;4483;48.622;9.230;2023-03-03T14:00:26;25.30;;;18.60;;
8893;SDS011;4483;48.622;9.230;2023-03-03T14:03:06;25.30;;;18.80;;
8893;SDS011;4483;48.622;9.230;2023-03-03T14:05:43;22.67;;;17.77;;
8893;SDS011;4483;48.622;9.230;2023-03-03T14:08:16;21.60;;;16.67;;
8893;SDS011;4483;48.622;9.230;2023-03-03T14:10:57;28.20;;;18.30;;
8893;SDS011;4483;48.622;9.230;2023-03-03T14:13:36;20.60;;;15.30;;
8893;SDS011;4483;48.622;9.230;2023-03-03T14:16:09;22.10;;;16.47;;
8893;SDS011;4483;48.622;9.230;2023-03-03T14:18:44;20.60;;;15.20;;
8893;SDS011;4483;48.622;9.230;2023-03-03T14:21:22;21.00;;;15.43;;
8893;SDS011;4483;48.622;9.230;2023-03-03T14:23:55;22.23;;;16.70;;
8893;SDS011;4483;48.622;9.230;2023-03-03T14:26:28;22.17;;;17.20;;
8893;SDS011;4483;48.622;9.230;2023-03-03T14:29:10;19.97;;;16.20;;
8893;SDS011;4483;48.622;9.230;2023-03-03T14:31:45;22.73;;;13.60;;
8893;SDS011;4483;48.622;9.230;2023-03-03T14:34:14;20.03;;;14.07;;
8893;SDS011;4483;48.622;9.230;2023-03-03T14:37:09;26.73;;;15.90;;
8893;SDS011;4483;48.622;9.230;2023-03-03T14:39:47;17.57;;;12.80;;
8893;SDS011;4483;48.622;9.230;2023-03-03T14:42:34;19.33;;;14.47;;
8893;SDS011;4483;48.622;9.230;2023-03-03T14:45:14;21.57;;;15.63;;
8893;SDS011;4483;48.622;9.230;2023-03-03T14:47:46;21.47;;;14.93;;
8893;SDS011;4483;48.622;9.230;2023-03-03T14:50:33;21.23;;;14.37;;
8893;SDS011;4483;48.622;9.230;2023-03-03T14:53:04;20.80;;;13.83;;
8893;SDS011;4483;48.622;9.230;2023-03-03T14:55:36;19.57;;;15.47;;
8893;SDS011;4483;48.622;9.230;2023-03-03T14:58:06;19.30;;;14.73;;
8893;SDS011;4483;48.622;9.230;2023-03-03T15:00:50;18.87;;;14.50;;
8893;SDS011;4483;48.622;9.230;2023-03-03T15:03:33;19.87;;;14.60;;
8893;SDS011;4483;48.622;9.230;2023-03-03T15:06:06;20.37;;;15.00;;
8893;SDS011;4483;48.622;9.230;2023-03-03T15:08:38;15.83;;;12.30;;
8893;SDS011;4483;48.622;9.230;2023-03-03T15:11:17;21.87;;;14.00;;
8893;SDS011;4483;48.622;9.230;2023-03-03T15:13:51;25.77;;;15.57;;
8893;SDS011;4483;48.622;9.230;2023-03-03T15:16:19;19.90;;;14.53;;
8893;SDS011;4483;48.622;9.230;2023-03-03T15:18:57;21.73;;;15.37;;
8893;SDS011;4483;48.622;9.230;2023-03-03T15:21:46;19.93;;;15.57;;
8893;SDS011;4483;48.622;9.230;2023-03-03T15:24:22;22.70;;;15.33;;